Time;durP1;ratioP1;P1;durP2;ratioP2;P2;SDS_P1;SDS_P2;PMS_P1;PMS_P2;Temp;Humidity;BMP_temperature;BMP_pressure;BME280_temperature;BME280_humidity;BME280_pressure;Samples;Min_cycle;Max_cycle;Signal;HPM_P1;HPM_P2
2022/01/29 12:28:04;;;;;;;;;;;;;;;12.52;68.00879;102019;;;;-76
2022/01/29 12:33:04;;;;;;;;;;;;;;;11.43;73.52246;102013.2;;;;-76
2022/01/29 12:38:02;;;;;;;;;;;;;;;11.14;75.88184;102000.9;;;;-76
2022/01/29 12:43:10;;;;;;;;;;;;;;;11.05;76.70898;101992.6;;;;-76
2022/01/29 12:48:13;;;;;;;;;;;;;;;11.01;77.08887;101975.8;;;;-76
2022/01/29 12:53:11;;;;;;;;;;;;;;;11.06;77.5293;101993.4;;;;-75
2022/01/29 12:58:02;;;;;;;;;;;;;;;11.06;77.5625;101993.3;;;;-76
2022/01/29 13:03:09;;;;;;;;;;;;;;;11.01;77.67676;102006.4;;;;-76
2022/01/29 13:08:02;;;;;;;;;;;;;;;10.97;77.69238;102014.9;;;;-77
2022/01/29 13:13:03;;;;;;;;;;;;;;;10.73;77.99316;102027.8;;;;-77
2022/01/29 13:18:03;;;;;;;;;;;;;;;10.61;78.50195;102006.7;;;;-77
2022/01/29 13:23:03;;;;;;;;;;;;;;;10.41;78.44434;101999.1;;;;-77
2022/01/29 13:28:12;;;;;;;;;;;;;;;10.27;78.8291;101990.5;;;;-77
2022/01/29 13:33:13;;;;;;;;;;;;;;;10.33;78.95117;101972.5;;;;-77
2022/01/29 13:38:15;;;;;;;;;;;;;;;10.34;79.41699;101990.5;;;;-76
2022/01/29 13:43:06;;;;;;;;;;;;;;;10.31;79.66504;101980.9;;;;-77
2022/01/29 13:48:10;;;;;;;;;;;;;;;10.29;79.62695;101963.9;;;;-77
2022/01/29 13:53:09;;;;;;;;;;;;;;;10.27;79.92578;101942.8;;;;-76
2022/01/29 13:58:06;;;;;;;;;;;;;;;10.28;80.06934;101961.3;;;;-77
2022/01/29 14:03:03;;;;;;;;;;;;;;;10.3;80.20508;101938.8;;;;-78
2022/01/29 14:08:13;;;;;;;;;;;;;;;10.31;;101949.7;;;;-76
2022/01/29 14:13:03;;;;;;;;;;;;;;;10.33;80.39844;101934.9;;;;-76
2022/01/29 14:18:02;;;;;;;;;;;;;;;10.31;80.38379;101943.6;;;;-76
2022/01/29 14:23:02;;;;;;;;;;;;;;;10.29;80.50098;101908.8;;;;-76
2022/01/29 14:28:02;;;;;;;;;;;;;;;10.26;80.45313;101925.9;;;;-77
2022/01/29 14:33:02;;;;;;;;;;;;;;;10.25;80.44043;101934;;;;-75
2022/01/29 14:38:02;;;;;;;;;;;;;;;10.24;80.59375;101937.9;;;;-77
2022/01/29 14:43:02;;;;;;;;;;;;;;;10.24;80.82422;101940.6;;;;-76
2022/01/29 14:48:03;;;;;;;;;;;;;;;10.18;80.74707;101946;;;;-76
2022/01/29 14:53:02;;;;;;;;;;;;;;;10.17;80.92285;101936.1;;;;-76
2022/01/29 14:58:02;;;;;;;;;;;;;;;10.13;80.9375;101954.2;;;;-76
2022/01/29 15:03:03;;;;;;;;;;;;;;;10.1;81.1748;101959.3;;;;-76
2022/01/29 15:08:04;;;;;;;;;;;;;;;10.06;81.42188;101985.1;;;;-76
2022/01/29 15:13:02;;;;;;;;;;;;;;;10.01;81.73145;101991.2;;;;-76
2022/01/29 15:18:04;;;;;;;;;;;;;;;9.95;81.82227;101996.4;;;;-76
2022/01/29 15:23:03;;;;;;;;;;;;;;;9.9;82.02246;102015.4;;;;-76
2022/01/29 15:28:02;;;;;;;;;;;;;;;9.84;82.0752;102014.6;;;;-76
2022/01/29 15:33:02;;;;;;;;;;;;;;;9.79;82.3418;102016.9;;;;-76
2022/01/29 15:38:02;;;;;;;;;;;;;;;9.74;82.54199;102014.9;;;;-75
2022/01/29 15:43:02;;;;;;;;;;;;;;;9.71;82.61328;102031.4;;;;-75
2022/01/29 15:48:02;;;;;;;;;;;;;;;9.69;82.75391;102043.9;;;;-76
2022/01/29 15:53:02;;;;;;;;;;;;;;;9.66;82.9248;102067.6;;;;-80
2022/01/29 15:58:02;;;;;;;;;;;;;;;9.64;82.92188;102061;;;;-76
2022/01/29 16:03:02;;;;;;;;;;;;;;;9.62;82.98242;102066.1;;;;-76
2022/01/29 16:08:02;;;;;;;;;;;;;;;9.57;82.97363;102084.4;;;;-76
2022/01/29 16:13:03;;;;;;;;;;;;;;;9.51;83.09473;102098.2;;;;-75
2022/01/29 16:18:02;;;;;;;;;;;;;;;9.44;82.87109;102110.6;;;;-76
2022/01/29 16:23:02;;;;;;;;;;;;;;;9.35;82.92188;102113.8;;;;-76
2022/01/29 16:28:02;;;;;;;;;;;;;;;9.26;82.82715;102136.3;;;;-76
2022/01/29 16:33:02;;;;;;;;;;;;;;;9.17;83.12793;102147.7;;;;-76
2022/01/29 16:38:04;;;;;;;;;;;;;;;9.08;83.02344;102146.9;;;;-77
2022/01/29 16:43:02;;;;;;;;;;;;;;;8.99;82.54395;102168.9;;;;-77
2022/01/29 16:48:02;;;;;;;;;;;;;;;8.9;82.68262;102170.9;;;;-76
2022/01/29 16:53:02;;;;;;;;;;;;;;;8.81;82.44531;102182.8;;;;-75
2022/01/29 16:58:02;;;;;;;;;;;;;;;8.72;81.44824;102192.3;;;;-75
2022/01/29 17:03:02;;;;;;;;;;;;;;;8.64;80.84863;102212.4;;;;-75
2022/01/29 17:08:02;;;;;;;;;;;;;;;8.57;80.39355;102218.8;;;;-76
2022/01/29 17:13:02;;;;;;;;;;;;;;;8.49;80.23633;102231.9;;;;-77
2022/01/29 17:18:02;;;;;;;;;;;;;;;8.41;79.83789;102239.3;;;;-76
2022/01/29 17:23:02;;;;;;;;;;;;;;;8.34;79.5166;102256.9;;;;-75
2022/01/29 17:28:02;;;;;;;;;;;;;;;8.3;79.7168;102245.1;;;;-76
2022/01/29 17:33:02;;;;;;;;;;;;;;;8.25;79.90723;102243.3;;;;-77
2022/01/29 17:38:02;;;;;;;;;;;;;;;8.18;79.87305;102266.2;;;;-77
2022/01/29 17:43:02;;;;;;;;;;;;;;;8.12;80.02441;102278.5;;;;-77
2022/01/29 17:48:02;;;;;;;;;;;;;;;8.06;80.26758;102289.5;;;;-74
2022/01/29 17:53:02;;;;;;;;;;;;;;;8.01;80.32324;102308.2;;;;-75
2022/01/29 17:58:02;;;;;;;;;;;;;;;7.95;80.64355;102314.1;;;;-75
2022/01/29 18:03:02;;;;;;;;;;;;;;;7.87;80.51855;102312.6;;;;-75
2022/01/29 18:08:02;;;;;;;;;;;;;;;7.8;80.53906;102328.7;;;;-75
2022/01/29 18:13:02;;;;;;;;;;;;;;;7.74;80.57129;102341.3;;;;-75
2022/01/29 18:18:02;;;;;;;;;;;;;;;7.68;80.52832;102334.3;;;;-75
2022/01/29 18:23:02;;;;;;;;;;;;;;;7.66;80.4375;102344.8;;;;-75
2022/01/29 18:28:06;;;;;;;;;;;;;;;7.64;80.41016;102355.5;;;;-76
2022/01/29 18:33:02;;;;;;;;;;;;;;;7.61;80.55859;102354.4;;;;-76
2022/01/29 18:38:03;;;;;;;;;;;;;;;7.58;80.57422;102371.3;;;;-76
2022/01/29 18:43:02;;;;;;;;;;;;;;;7.55;80.55859;102395.4;;;;-76
2022/01/29 18:48:02;;;;;;;;;;;;;;;7.52;80.71777;102396.7;;;;-76
2022/01/29 18:53:03;;;;;;;;;;;;;;;7.5;80.80273;102404.6;;;;-76
2022/01/29 18:58:05;;;;;;;;;;;;;;;7.49;81.04199;102405.8;;;;-77
2022/01/29 19:03:02;;;;;;;;;;;;;;;7.49;81.22949;102417.4;;;;-75
2022/01/29 19:08:04;;;;;;;;;;;;;;;7.48;81.35938;102421.9;;;;-75
2022/01/29 19:13:02;;;;;;;;;;;;;;;7.46;81.75098;102433.3;;;;-75
2022/01/29 19:18:06;;;;;;;;;;;;;;;7.44;81.81152;102450.7;;;;-75
2022/01/29 19:23:02;;;;;;;;;;;;;;;7.44;81.84473;102469;;;;-75
2022/01/29 19:28:02;;;;;;;;;;;;;;;7.42;81.75391;102470.8;;;;-75
2022/01/29 19:33:02;;;;;;;;;;;;;;;7.4;81.07813;102477;;;;-76
2022/01/29 19:38:02;;;;;;;;;;;;;;;7.35;80.62012;102470.6;;;;-76
2022/01/29 19:43:02;;;;;;;;;;;;;;;7.31;80.38281;102481.5;;;;-76
2022/01/29 19:48:03;;;;;;;;;;;;;;;7.26;80.24023;102488.5;;;;-77
2022/01/29 19:53:02;;;;;;;;;;;;;;;7.2;80.18457;102498.9;;;;-75
2022/01/29 19:58:02;;;;;;;;;;;;;;;7.17;80.68457;102512.7;;;;-75
2022/01/29 20:03:08;;;;;;;;;;;;;;;7.13;80.52441;102512.8;;;;-76
2022/01/29 20:08:08;;;;;;;;;;;;;;;7.07;80.86426;102521.3;;;;-77
2022/01/29 20:13:02;;;;;;;;;;;;;;;7.03;81.23926;102525.4;;;;-74
2022/01/29 20:18:04;;;;;;;;;;;;;;;6.98;81.64746;102527.3;;;;-76
2022/01/29 20:23:02;;;;;;;;;;;;;;;6.94;81.58789;102525.9;;;;-77
2022/01/29 20:28:02;;;;;;;;;;;;;;;6.89;81.99414;102529.3;;;;-75
2022/01/29 20:33:02;;;;;;;;;;;;;;;6.9;82.45508;102533.9;;;;-75
2022/01/29 20:38:02;;;;;;;;;;;;;;;6.83;82.29102;102543;;;;-76
2022/01/29 20:43:04;;;;;;;;;;;;;;;6.82;82.22168;102541.4;;;;-75
2022/01/29 20:48:02;;;;;;;;;;;;;;;6.8;81.95508;102550.8;;;;-76
2022/01/29 20:53:05;;;;;;;;;;;;;;;6.79;82.01953;102569.2;;;;-76
2022/01/29 20:58:03;;;;;;;;;;;;;;;6.78;82.03906;102569;;;;-77
2022/01/29 21:03:04;;;;;;;;;;;;;;;6.78;82.35742;102574;;;;-76
2022/01/29 21:08:02;;;;;;;;;;;;;;;6.75;82.11133;102580.1;;;;-76
2022/01/29 21:13:03;;;;;;;;;;;;;;;6.73;81.83203;102583.5;;;;-76
2022/01/29 21:18:02;;;;;;;;;;;;;;;6.73;81.64551;102585.9;;;;-76
2022/01/29 21:23:02;;;;;;;;;;;;;;;6.69;81.45215;102585.9;;;;-76
2022/01/29 21:28:02;;;;;;;;;;;;;;;6.66;81.37988;102605.5;;;;-77
2022/01/29 21:33:05;;;;;;;;;;;;;;;6.59;81.47754;102608.8;;;;-76
2022/01/29 21:38:02;;;;;;;;;;;;;;;6.53;81.33398;102617;;;;-76
2022/01/29 21:43:03;;;;;;;;;;;;;;;6.51;81.11133;102626.3;;;;-76
2022/01/29 21:48:02;;;;;;;;;;;;;;;6.5;80.89941;102627.3;;;;-75
2022/01/29 21:53:02;;;;;;;;;;;;;;;6.5;80.74609;102629.6;;;;-77
2022/01/29 21:58:02;;;;;;;;;;;;;;;6.48;80.50195;102647.1;;;;-76
2022/01/29 22:03:04;;;;;;;;;;;;;;;6.43;80.53711;102647.4;;;;-76
2022/01/29 22:08:02;;;;;;;;;;;;;;;6.37;80.54883;102654.5;;;;-76
2022/01/29 22:13:02;;;;;;;;;;;;;;;6.33;80.51855;102653.1;;;;-76
2022/01/29 22:18:03;;;;;;;;;;;;;;;6.32;80.57129;102649.5;;;;-76
2022/01/29 22:23:03;;;;;;;;;;;;;;;6.34;80.60938;102657.8;;;;-76
2022/01/29 22:28:04;;;;;;;;;;;;;;;6.38;80.69141;102662.2;;;;-78
2022/01/29 22:33:02;;;;;;;;;;;;;;;6.37;80.49414;102678.1;;;;-76
2022/01/29 22:38:03;;;;;;;;;;;;;;;6.36;80.52344;102681.5;;;;-76
2022/01/29 22:43:02;;;;;;;;;;;;;;;6.35;80.44531;102685.8;;;;-75
2022/01/29 22:48:02;;;;;;;;;;;;;;;6.37;80.51563;102678.5;;;;-75
2022/01/29 22:53:02;;;;;;;;;;;;;;;6.39;80.4209;102678.3;;;;-75
2022/01/29 22:58:02;;;;;;;;;;;;;;;6.39;80.48633;102690.1;;;;-76
2022/01/29 23:03:02;;;;;;;;;;;;;;;6.37;80.37305;102707;;;;-74
2022/01/29 23:08:02;;;;;;;;;;;;;;;6.34;80.47656;102706.9;;;;-75
2022/01/29 23:13:11;;;;;;;;;;;;;;;6.35;80.48926;102711;;;;-76
2022/01/29 23:18:02;;;;;;;;;;;;;;;6.34;80.52148;102719;;;;-76
2022/01/29 23:23:13;;;;;;;;;;;;;;;6.31;80.54785;102724.8;;;;-76
2022/01/29 23:28:11;;;;;;;;;;;;;;;6.29;80.58789;102731.4;;;;-76
2022/01/29 23:33:25;;;;;;;;;;;;;;;6.29;80.67383;102743.5;;;;-76
2022/01/29 23:38:03;;;;;;;;;;;;;;;6.28;80.65039;102748.9;;;;-76
2022/01/29 23:43:08;;;;;;;;;;;;;;;6.25;80.6123;102743.2;;;;-76
2022/01/29 23:53:02;;;;;;;;;;;;;;;6.2;80.64648;102759.7;;;;-76
2022/01/29 23:58:02;;;;;;;;;;;;;;;6.15;80.6709;102748.5;;;;-76
